createdAt,value
2017-12-11T00:00:10.232Z,3.00
2017-12-11T00:02:38.545Z,3.10
2017-12-11T00:05:06.815Z,3.00
2017-12-11T00:07:35.108Z,3.00
2017-12-11T00:10:03.375Z,3.10
2017-12-11T00:12:31.686Z,3.00
2017-12-11T00:15:00.001Z,3.10
2017-12-11T00:17:28.270Z,3.00
2017-12-11T00:19:57.667Z,3.00
2017-12-11T00:22:37.776Z,3.10
2017-12-11T00:25:06.040Z,3.00
2017-12-11T00:27:37.013Z,2.90
2017-12-11T00:30:05.279Z,3.00
2017-12-11T00:32:33.582Z,3.00
2017-12-11T00:35:01.839Z,3.00
2017-12-11T00:37:30.142Z,3.00
2017-12-11T00:39:58.452Z,3.10
2017-12-11T00:42:28.040Z,3.10
2017-12-11T00:44:56.700Z,3.00
2017-12-11T00:47:24.992Z,3.00
2017-12-11T00:49:53.295Z,2.90
2017-12-11T00:52:21.593Z,2.90
2017-12-11T00:54:49.861Z,2.90
2017-12-11T00:57:18.162Z,3.00
2017-12-11T00:59:46.419Z,2.90
2017-12-11T01:02:14.724Z,2.90
2017-12-11T01:04:42.990Z,3.00
2017-12-11T01:07:11.255Z,3.00
2017-12-11T01:09:39.540Z,3.10
2017-12-11T01:12:07.798Z,3.20
2017-12-11T01:14:36.086Z,3.10
2017-12-11T01:17:04.356Z,3.00
2017-12-11T01:19:33.671Z,3.10
2017-12-11T01:22:02.734Z,3.10
2017-12-11T01:24:32.079Z,3.00
2017-12-11T01:27:00.344Z,3.00
2017-12-11T01:29:28.640Z,3.10
2017-12-11T01:31:58.491Z,3.10
2017-12-11T01:34:27.228Z,3.10
2017-12-11T01:36:55.571Z,3.20
2017-12-11T01:39:23.891Z,3.10
2017-12-11T01:41:52.166Z,3.10
2017-12-11T01:44:20.432Z,3.00
2017-12-11T01:46:48.739Z,3.00
2017-12-11T01:49:17.026Z,3.00
2017-12-11T01:51:45.289Z,2.90
2017-12-11T01:54:13.614Z,2.80
2017-12-11T01:56:41.123Z,2.80
2017-12-11T01:59:09.396Z,3.00
2017-12-11T02:01:37.684Z,3.10
2017-12-11T02:04:05.974Z,3.20
2017-12-11T02:06:34.258Z,3.00
2017-12-11T02:09:03.799Z,2.80
2017-12-11T02:11:33.339Z,2.80
2017-12-11T02:14:02.313Z,2.70
2017-12-11T02:16:31.399Z,2.70
2017-12-11T02:18:59.691Z,2.70
2017-12-11T02:21:29.199Z,2.80
2017-12-11T02:23:57.431Z,2.80
2017-12-11T02:26:25.739Z,2.60
2017-12-11T02:28:54.013Z,2.70
2017-12-11T02:31:22.298Z,2.60
2017-12-11T02:33:50.596Z,2.50
2017-12-11T02:36:18.896Z,2.60
2017-12-11T02:38:46.396Z,2.50
2017-12-11T02:41:18.123Z,2.50
2017-12-11T02:43:46.380Z,2.40
2017-12-11T02:46:14.666Z,2.40
2017-12-11T02:48:42.974Z,2.40
2017-12-11T02:51:11.254Z,2.30
2017-12-11T02:53:39.558Z,2.20
2017-12-11T02:56:07.833Z,2.20
2017-12-11T02:58:36.159Z,2.10
2017-12-11T03:01:04.419Z,2.10
2017-12-11T03:03:33.680Z,2.00
2017-12-11T03:06:01.987Z,2.10
2017-12-11T03:08:30.264Z,2.10
2017-12-11T03:10:58.522Z,2.00
2017-12-11T03:13:26.751Z,2.00
2017-12-11T03:15:55.051Z,2.10
2017-12-11T03:18:23.304Z,2.10
2017-12-11T03:20:51.587Z,2.10
2017-12-11T03:23:19.879Z,2.20
2017-12-11T03:25:48.140Z,2.20
2017-12-11T03:28:16.433Z,2.20
2017-12-11T03:30:44.719Z,2.10
2017-12-11T03:33:12.980Z,2.10
2017-12-11T03:35:41.248Z,2.00
2017-12-11T03:38:09.538Z,2.10
2017-12-11T03:40:37.822Z,2.10
2017-12-11T03:43:06.123Z,2.10
2017-12-11T03:45:34.380Z,2.10
2017-12-11T03:48:06.432Z,2.10
2017-12-11T03:50:34.724Z,2.20
2017-12-11T03:53:02.994Z,2.10
2017-12-11T03:55:31.329Z,2.10
2017-12-11T03:57:59.623Z,2.00
2017-12-11T04:00:29.131Z,2.10
2017-12-11T04:02:58.445Z,2.00
2017-12-11T04:05:28.183Z,1.90
2017-12-11T04:07:57.514Z,1.90
2017-12-11T04:10:25.807Z,1.90
2017-12-11T04:12:54.071Z,1.90
2017-12-11T04:15:22.360Z,1.90
2017-12-11T04:17:50.655Z,1.90
2017-12-11T04:20:18.935Z,1.90
2017-12-11T04:22:47.231Z,2.00
2017-12-11T04:25:15.488Z,2.00
2017-12-11T04:27:43.758Z,2.00
2017-12-11T04:30:12.050Z,1.90
2017-12-11T04:32:40.336Z,1.80
2017-12-11T04:35:08.596Z,1.80
2017-12-11T04:37:36.127Z,1.80
2017-12-11T04:40:04.388Z,1.70
2017-12-11T04:42:33.861Z,1.70
2017-12-11T04:45:03.104Z,1.70
2017-12-11T04:47:32.804Z,1.80
2017-12-11T04:50:02.223Z,1.80
2017-12-11T04:52:30.491Z,1.80
2017-12-11T04:54:58.780Z,1.70
2017-12-11T04:57:27.911Z,1.70
2017-12-11T04:59:56.829Z,1.80
2017-12-11T05:02:25.090Z,1.80
2017-12-11T05:04:53.379Z,1.70
2017-12-11T05:07:21.640Z,1.60
2017-12-11T05:09:49.931Z,1.50
2017-12-11T05:12:18.196Z,1.60
2017-12-11T05:14:47.392Z,1.60
2017-12-11T05:17:15.680Z,1.60
2017-12-11T05:19:43.941Z,1.60
2017-12-11T05:22:12.227Z,1.60
2017-12-11T05:24:40.487Z,1.60
2017-12-11T05:27:08.792Z,1.60
2017-12-11T05:29:37.069Z,1.60
2017-12-11T05:32:05.356Z,1.60
2017-12-11T05:34:33.614Z,1.60
2017-12-11T05:37:01.907Z,1.60
2017-12-11T05:39:30.169Z,1.50
2017-12-11T05:41:58.424Z,1.60
2017-12-11T05:44:27.030Z,1.60
2017-12-11T05:46:55.284Z,1.60
2017-12-11T05:49:23.589Z,1.50
2017-12-11T05:51:51.852Z,1.50
2017-12-11T05:54:19.340Z,1.50
2017-12-11T05:56:47.627Z,1.50
2017-12-11T05:59:15.921Z,1.50
2017-12-11T06:01:44.199Z,1.50
2017-12-11T06:04:12.459Z,1.50
2017-12-11T06:06:40.743Z,1.50
2017-12-11T06:09:08.270Z,1.50
2017-12-11T06:11:36.577Z,1.50
2017-12-11T06:14:04.856Z,1.50
2017-12-11T06:16:33.124Z,1.50
2017-12-11T06:19:01.491Z,1.40
2017-12-11T06:21:29.755Z,1.40
2017-12-11T06:24:04.447Z,1.40
2017-12-11T06:26:33.931Z,1.40
2017-12-11T06:29:01.484Z,1.40
2017-12-11T06:31:29.789Z,1.40
2017-12-11T06:34:03.757Z,1.40
2017-12-11T06:36:32.291Z,1.40
2017-12-11T06:39:00.551Z,1.50
2017-12-11T06:41:28.835Z,1.50
2017-12-11T06:43:57.096Z,1.60
2017-12-11T06:46:25.383Z,1.60
2017-12-11T06:48:53.673Z,1.60
2017-12-11T06:51:21.958Z,1.60
2017-12-11T06:53:50.227Z,1.60
2017-12-11T06:56:18.491Z,1.60
2017-12-11T06:58:46.797Z,1.60
2017-12-11T07:01:15.095Z,1.60
2017-12-11T07:03:43.359Z,1.60
2017-12-11T07:06:11.660Z,1.60
2017-12-11T07:08:39.967Z,1.60
2017-12-11T07:11:08.239Z,1.60
2017-12-11T07:13:36.503Z,1.60
2017-12-11T07:16:04.802Z,1.60
2017-12-11T07:18:33.068Z,1.50
2017-12-11T07:21:02.476Z,1.50
2017-12-11T07:23:31.587Z,1.50
2017-12-11T07:25:59.880Z,1.60
2017-12-11T07:28:29.033Z,1.60
2017-12-11T07:30:58.131Z,1.60
2017-12-11T07:33:27.839Z,1.60
2017-12-11T07:35:56.818Z,1.60
2017-12-11T07:38:25.084Z,1.60
2017-12-11T07:40:53.364Z,1.60
2017-12-11T07:43:20.898Z,1.60
2017-12-11T07:45:49.205Z,1.60
2017-12-11T07:48:17.505Z,1.60
2017-12-11T07:50:45.767Z,1.60
2017-12-11T07:53:14.071Z,1.60
2017-12-11T07:55:42.340Z,1.60
2017-12-11T07:58:10.604Z,1.80
2017-12-11T08:00:38.899Z,1.70
2017-12-11T08:03:07.163Z,1.70
2017-12-11T08:05:35.467Z,1.80
2017-12-11T08:08:03.731Z,1.70
2017-12-11T08:10:32.023Z,1.80
2017-12-11T08:13:00.316Z,1.70
2017-12-11T08:15:28.661Z,1.70
2017-12-11T08:17:59.997Z,1.70
2017-12-11T08:20:28.290Z,1.60
2017-12-11T08:22:56.583Z,1.70
2017-12-11T08:25:24.851Z,1.70
2017-12-11T08:27:52.379Z,1.70
2017-12-11T08:30:23.963Z,1.70
2017-12-11T08:32:53.052Z,1.80
2017-12-11T08:35:21.923Z,1.80
2017-12-11T08:37:50.228Z,1.80
2017-12-11T08:40:18.490Z,1.80
2017-12-11T08:42:46.784Z,1.80
2017-12-11T08:45:15.047Z,1.70
2017-12-11T08:47:43.351Z,1.70
2017-12-11T08:50:11.611Z,1.70
2017-12-11T08:52:39.905Z,1.70
2017-12-11T08:55:09.445Z,1.70
2017-12-11T08:57:38.951Z,1.70
2017-12-11T09:00:08.196Z,1.70
2017-12-11T09:02:37.270Z,1.90
2017-12-11T09:05:05.559Z,1.90
2017-12-11T09:07:33.859Z,1.80
2017-12-11T09:10:02.119Z,1.90
2017-12-11T09:12:30.415Z,1.90
2017-12-11T09:14:58.748Z,1.80
2017-12-11T09:17:27.011Z,1.80
2017-12-11T09:19:54.507Z,1.70
2017-12-11T09:22:22.804Z,1.70
2017-12-11T09:24:51.067Z,1.70
2017-12-11T09:27:19.364Z,1.70
2017-12-11T09:29:47.620Z,1.80
2017-12-11T09:32:15.926Z,1.70
2017-12-11T09:34:44.198Z,1.60
2017-12-11T09:37:12.464Z,1.60
2017-12-11T09:39:40.744Z,1.60
2017-12-11T09:42:09.060Z,1.60
2017-12-11T09:44:38.239Z,1.50
2017-12-11T09:47:07.145Z,1.40
2017-12-11T09:49:35.441Z,1.40
2017-12-11T09:52:03.699Z,1.40
2017-12-11T09:54:31.964Z,1.40
2017-12-11T09:57:00.267Z,1.40
2017-12-11T09:59:28.535Z,1.30
2017-12-11T10:01:56.802Z,1.30
2017-12-11T10:04:25.111Z,1.30
2017-12-11T10:06:53.371Z,1.30
2017-12-11T10:09:21.639Z,1.30
2017-12-11T10:11:50.441Z,1.30
2017-12-11T10:14:18.706Z,1.30
2017-12-11T10:16:47.004Z,1.30
2017-12-11T10:19:15.274Z,1.30
2017-12-11T10:21:43.565Z,1.20
2017-12-11T10:24:11.911Z,1.20
2017-12-11T10:26:40.143Z,1.30
2017-12-11T10:29:14.472Z,1.20
2017-12-11T10:31:42.734Z,1.20
2017-12-11T10:34:11.029Z,1.20
2017-12-11T10:36:39.298Z,1.30
2017-12-11T10:39:07.687Z,1.20
2017-12-11T10:41:35.948Z,1.20
2017-12-11T10:44:04.207Z,1.30
2017-12-11T10:46:33.760Z,1.20
2017-12-11T10:49:02.060Z,1.20
2017-12-11T10:51:30.328Z,1.20
2017-12-11T10:53:58.884Z,1.30
2017-12-11T10:56:27.151Z,1.20
2017-12-11T10:58:55.452Z,1.20
2017-12-11T11:01:23.725Z,1.20
2017-12-11T11:03:51.998Z,1.20
2017-12-11T11:06:20.301Z,1.20
2017-12-11T11:08:48.571Z,1.30
2017-12-11T11:11:16.859Z,1.20
2017-12-11T11:13:45.122Z,1.20
2017-12-11T11:16:13.420Z,1.20
2017-12-11T11:18:41.679Z,1.20
2017-12-11T11:21:13.582Z,1.10
2017-12-11T11:23:41.884Z,1.20
2017-12-11T11:26:10.151Z,1.20
2017-12-11T11:28:39.820Z,1.20
2017-12-11T11:31:09.103Z,1.20
2017-12-11T11:33:38.307Z,1.10
2017-12-11T11:36:06.572Z,1.10
2017-12-11T11:38:34.875Z,1.20
2017-12-11T11:41:03.178Z,1.20
2017-12-11T11:43:32.342Z,1.20
2017-12-11T11:46:00.623Z,1.20
2017-12-11T11:48:28.919Z,1.30
2017-12-11T11:50:57.176Z,1.30
2017-12-11T11:53:25.470Z,1.20
2017-12-11T11:55:53.740Z,1.20
2017-12-11T11:58:22.048Z,1.20
2017-12-11T12:00:50.308Z,1.20
2017-12-11T12:03:18.573Z,1.20
2017-12-11T12:05:46.865Z,1.30
2017-12-11T12:08:15.126Z,1.30
2017-12-11T12:10:43.414Z,1.30
2017-12-11T12:13:11.708Z,1.30
2017-12-11T12:15:39.968Z,1.30
2017-12-11T12:18:09.418Z,1.30
2017-12-11T12:20:38.417Z,1.30
2017-12-11T12:23:07.812Z,1.30
2017-12-11T12:25:36.067Z,1.30
2017-12-11T12:28:04.332Z,1.30
2017-12-11T12:30:33.779Z,1.30
2017-12-11T12:33:02.048Z,1.30
2017-12-11T12:35:30.352Z,1.30
2017-12-11T12:37:58.618Z,1.30
2017-12-11T12:40:26.902Z,1.20
2017-12-11T12:42:55.167Z,1.20
2017-12-11T12:45:23.461Z,1.30
2017-12-11T12:47:51.723Z,1.30
2017-12-11T12:50:20.016Z,1.40
2017-12-11T12:52:48.283Z,1.30
2017-12-11T12:55:16.576Z,1.40
2017-12-11T12:57:45.755Z,1.40
2017-12-11T13:00:14.064Z,1.40
2017-12-11T13:02:42.326Z,1.40
2017-12-11T13:05:10.587Z,1.50
2017-12-11T13:07:38.880Z,1.50
2017-12-11T13:10:08.187Z,1.40
2017-12-11T13:12:36.607Z,1.50
2017-12-11T13:15:04.863Z,1.50
2017-12-11T13:17:33.964Z,1.50
2017-12-11T13:20:02.267Z,1.50
2017-12-11T13:22:30.527Z,1.40
2017-12-11T13:24:59.411Z,1.40
2017-12-11T13:27:27.676Z,1.50
2017-12-11T13:29:55.939Z,1.50
2017-12-11T13:32:24.227Z,1.50
2017-12-11T13:34:52.490Z,1.50
2017-12-11T13:37:21.132Z,1.50
2017-12-11T13:39:48.623Z,1.40
2017-12-11T13:42:16.936Z,1.60
2017-12-11T13:44:45.200Z,1.50
2017-12-11T13:47:13.463Z,1.50
2017-12-11T13:49:41.767Z,1.50
2017-12-11T13:52:10.028Z,1.60
2017-12-11T13:54:40.073Z,1.50
2017-12-11T13:57:09.635Z,1.60
2017-12-11T13:59:41.621Z,1.60
2017-12-11T14:02:09.916Z,1.60
2017-12-11T14:04:39.214Z,1.60
2017-12-11T14:07:08.384Z,1.60
2017-12-11T14:09:36.676Z,1.60
2017-12-11T14:12:04.944Z,1.80
2017-12-11T14:14:33.705Z,1.70
2017-12-11T14:17:02.903Z,1.80
2017-12-11T14:19:31.888Z,1.70
2017-12-11T14:22:00.175Z,1.70
2017-12-11T14:24:28.467Z,1.80
2017-12-11T14:26:56.763Z,1.80
2017-12-11T14:29:25.039Z,1.80
2017-12-11T14:31:53.308Z,1.80
2017-12-11T14:34:21.648Z,1.80
2017-12-11T14:36:49.931Z,1.80
2017-12-11T14:39:18.235Z,1.80
2017-12-11T14:41:46.507Z,1.80
2017-12-11T14:44:14.769Z,1.90
2017-12-11T14:46:43.056Z,1.80
2017-12-11T14:49:10.554Z,1.80
2017-12-11T14:51:38.858Z,1.90
2017-12-11T14:54:08.728Z,1.80
2017-12-11T14:56:38.315Z,1.90
2017-12-11T14:59:06.571Z,1.80
2017-12-11T15:01:34.871Z,1.80
2017-12-11T15:04:03.247Z,1.80
2017-12-11T15:06:32.396Z,1.90
2017-12-11T15:09:00.717Z,1.90
2017-12-11T15:11:28.984Z,1.80
2017-12-11T15:13:57.267Z,1.90
2017-12-11T15:16:25.522Z,2.00
2017-12-11T15:18:53.811Z,2.00
2017-12-11T15:21:22.067Z,2.20
2017-12-11T15:23:50.356Z,2.10
2017-12-11T15:26:18.611Z,2.20
2017-12-11T15:28:46.912Z,2.10
2017-12-11T15:31:15.207Z,2.10
2017-12-11T15:33:43.464Z,2.20
2017-12-11T15:36:11.727Z,2.10
2017-12-11T15:38:40.094Z,2.20
2017-12-11T15:41:09.644Z,2.10
2017-12-11T15:43:39.091Z,2.10
2017-12-11T15:46:08.394Z,2.10
2017-12-11T15:48:36.666Z,2.00
2017-12-11T15:51:04.935Z,2.00
2017-12-11T15:53:33.318Z,2.00
2017-12-11T15:56:02.651Z,2.10
2017-12-11T15:58:30.954Z,2.00
2017-12-11T16:00:59.248Z,2.00
2017-12-11T16:03:27.543Z,2.10
2017-12-11T16:05:55.035Z,2.00
2017-12-11T16:08:23.289Z,2.20
2017-12-11T16:10:51.589Z,2.20
2017-12-11T16:13:19.856Z,2.10
2017-12-11T16:15:48.151Z,2.30
2017-12-11T16:18:15.643Z,2.30
2017-12-11T16:20:43.933Z,2.20
2017-12-11T16:23:12.196Z,2.20
2017-12-11T16:25:40.493Z,2.30
2017-12-11T16:28:08.797Z,2.40
2017-12-11T16:30:38.398Z,2.40
2017-12-11T16:33:06.664Z,2.40
2017-12-11T16:35:34.957Z,2.30
2017-12-11T16:38:08.528Z,2.40
2017-12-11T16:40:37.997Z,2.40
2017-12-11T16:43:06.268Z,2.60
2017-12-11T16:45:34.547Z,2.50
2017-12-11T16:48:03.480Z,2.50
2017-12-11T16:50:31.851Z,2.50
2017-12-11T16:53:00.114Z,2.50
2017-12-11T16:55:27.603Z,2.50
2017-12-11T16:57:56.815Z,2.40
2017-12-11T17:00:25.083Z,2.40
2017-12-11T17:02:53.373Z,2.40
2017-12-11T17:05:21.643Z,2.40
2017-12-11T17:07:49.931Z,2.40
2017-12-11T17:10:18.220Z,2.70
2017-12-11T17:12:46.489Z,2.50
2017-12-11T17:15:14.743Z,2.60
2017-12-11T17:17:43.033Z,2.80
2017-12-11T17:20:10.519Z,2.70
2017-12-11T17:22:38.806Z,2.50
2017-12-11T17:25:08.499Z,2.40
2017-12-11T17:27:37.974Z,2.40
2017-12-11T17:30:06.287Z,2.60
2017-12-11T17:32:34.573Z,2.50
2017-12-11T17:35:03.689Z,2.40
2017-12-11T17:37:32.543Z,2.50
2017-12-11T17:40:00.804Z,2.50
2017-12-11T17:42:29.105Z,2.50
2017-12-11T17:44:57.368Z,2.40
2017-12-11T17:47:25.652Z,2.40
2017-12-11T17:49:53.944Z,2.40
2017-12-11T17:52:22.230Z,2.60
2017-12-11T17:54:50.483Z,2.60
2017-12-11T17:57:18.773Z,2.50
2017-12-11T17:59:47.031Z,2.60
2017-12-11T18:02:15.331Z,2.50
2017-12-11T18:04:43.600Z,2.40
2017-12-11T18:07:11.889Z,2.50
2017-12-11T18:09:40.143Z,2.40
2017-12-11T18:12:09.637Z,2.30
2017-12-11T18:14:38.388Z,2.30
2017-12-11T18:17:06.690Z,2.30
2017-12-11T18:19:34.955Z,2.30
2017-12-11T18:22:03.982Z,2.20
2017-12-11T18:24:32.699Z,2.20
2017-12-11T18:27:00.960Z,2.30
2017-12-11T18:29:29.219Z,2.30
2017-12-11T18:31:57.511Z,2.50
2017-12-11T18:34:25.780Z,2.50
2017-12-11T18:36:54.075Z,2.50
2017-12-11T18:39:21.564Z,2.50
2017-12-11T18:41:49.814Z,2.40
2017-12-11T18:44:17.330Z,2.40
2017-12-11T18:46:45.587Z,2.60
2017-12-11T18:49:14.903Z,2.60
2017-12-11T18:51:43.188Z,2.60
2017-12-11T18:54:11.447Z,2.50
2017-12-11T18:56:39.727Z,2.40
2017-12-11T18:59:08.773Z,2.70
2017-12-11T19:01:38.120Z,2.60
2017-12-11T19:04:07.169Z,2.50
2017-12-11T19:06:35.460Z,2.40
2017-12-11T19:09:03.751Z,2.40
2017-12-11T19:11:33.204Z,2.40
2017-12-11T19:14:01.934Z,2.60
2017-12-11T19:16:31.998Z,2.50
2017-12-11T19:19:00.259Z,2.40
2017-12-11T19:21:28.691Z,2.40
2017-12-11T19:23:56.985Z,2.30
2017-12-11T19:26:25.308Z,2.30
2017-12-11T19:28:53.610Z,2.40
2017-12-11T19:31:21.928Z,2.40
2017-12-11T19:33:50.239Z,2.50
2017-12-11T19:36:18.560Z,2.50
2017-12-11T19:38:46.857Z,2.40
2017-12-11T19:41:15.198Z,2.60
2017-12-11T19:43:43.484Z,2.50
2017-12-11T19:46:11.773Z,2.40
2017-12-11T19:48:40.030Z,2.50
2017-12-11T19:51:09.312Z,2.70
2017-12-11T19:53:37.960Z,2.70
2017-12-11T19:56:06.236Z,2.70
2017-12-11T19:58:34.564Z,2.80
2017-12-11T20:01:03.375Z,2.90
2017-12-11T20:03:32.443Z,2.90
2017-12-11T20:06:00.711Z,2.90
2017-12-11T20:08:29.140Z,2.80
2017-12-11T20:10:57.454Z,2.70
2017-12-11T20:13:25.691Z,2.70
2017-12-11T20:15:53.987Z,2.60
2017-12-11T20:18:22.279Z,2.60
2017-12-11T20:20:50.540Z,2.50
2017-12-11T20:23:18.887Z,2.50
2017-12-11T20:25:47.147Z,2.50
2017-12-11T20:28:15.474Z,2.50
2017-12-11T20:30:43.771Z,2.50
2017-12-11T20:33:13.978Z,2.60
2017-12-11T20:35:42.276Z,2.50
2017-12-11T20:38:18.667Z,2.50
2017-12-11T20:40:55.110Z,2.70
2017-12-11T20:43:27.016Z,2.70
2017-12-11T20:45:55.376Z,2.60
2017-12-11T20:48:23.690Z,2.30
2017-12-11T20:50:52.021Z,2.20
2017-12-11T20:53:20.318Z,2.20
2017-12-11T20:55:58.726Z,2.20
2017-12-11T20:58:26.254Z,2.20
2017-12-11T21:00:54.538Z,2.20
2017-12-11T21:03:22.840Z,2.10
2017-12-11T21:05:52.127Z,2.10
2017-12-11T21:08:20.389Z,2.10
2017-12-11T21:10:48.669Z,2.00
2017-12-11T21:13:16.973Z,2.10
2017-12-11T21:15:45.272Z,2.00
2017-12-11T21:18:14.560Z,2.00
2017-12-11T21:20:42.831Z,2.00
2017-12-11T21:23:11.126Z,1.90
2017-12-11T21:25:39.395Z,1.80
2017-12-11T21:28:07.695Z,1.80
2017-12-11T21:30:42.040Z,1.80
2017-12-11T21:33:10.333Z,1.80
2017-12-11T21:35:42.266Z,1.70
2017-12-11T21:38:10.560Z,1.80
2017-12-11T21:40:40.884Z,1.70
2017-12-11T21:43:09.152Z,1.60
2017-12-11T21:45:38.319Z,1.60
2017-12-11T21:48:06.615Z,1.60
2017-12-11T21:50:38.623Z,1.80
2017-12-11T21:53:08.083Z,1.80
2017-12-11T21:55:42.148Z,1.70
2017-12-11T21:58:10.461Z,1.70
2017-12-11T22:00:40.769Z,1.60
2017-12-11T22:03:09.597Z,1.60
2017-12-11T22:05:39.024Z,1.90
2017-12-11T22:08:08.392Z,1.90
2017-12-11T22:10:53.273Z,1.80
2017-12-11T22:13:21.584Z,1.60
2017-12-11T22:15:55.737Z,1.60
2017-12-11T22:18:27.579Z,1.60
2017-12-11T22:20:55.847Z,1.60
2017-12-11T22:23:26.590Z,1.50
2017-12-11T22:25:54.855Z,1.60
2017-12-11T22:28:24.670Z,1.60
2017-12-11T22:30:53.076Z,1.70
2017-12-11T22:33:22.091Z,1.60
2017-12-11T22:35:50.392Z,1.60
2017-12-11T22:38:18.707Z,1.60
2017-12-11T22:40:47.307Z,1.70
2017-12-11T22:43:15.651Z,1.70
2017-12-11T22:45:43.920Z,1.70
2017-12-11T22:48:16.038Z,1.80
2017-12-11T22:50:44.334Z,1.60
2017-12-11T22:53:12.599Z,1.50
2017-12-11T22:55:40.901Z,1.60
2017-12-11T22:58:15.121Z,1.50
2017-12-11T23:00:43.424Z,1.60
2017-12-11T23:03:11.755Z,1.60
2017-12-11T23:05:40.013Z,1.60
2017-12-11T23:08:20.914Z,1.50
2017-12-11T23:10:49.184Z,1.50
2017-12-11T23:13:17.518Z,1.50
2017-12-11T23:15:45.773Z,1.60
2017-12-11T23:18:14.091Z,1.60
2017-12-11T23:20:42.348Z,1.60
2017-12-11T23:23:20.506Z,1.60
2017-12-11T23:25:48.771Z,1.50
2017-12-11T23:28:22.830Z,1.50
2017-12-11T23:30:51.131Z,1.30
2017-12-11T23:33:19.516Z,1.50
2017-12-11T23:35:47.751Z,1.40
2017-12-11T23:38:22.997Z,1.40
2017-12-11T23:40:51.255Z,1.40
2017-12-11T23:43:20.572Z,1.40
2017-12-11T23:45:48.846Z,1.30
2017-12-11T23:48:17.148Z,1.40
2017-12-11T23:50:45.435Z,1.40
2017-12-11T23:53:19.583Z,1.40
2017-12-11T23:55:47.876Z,1.40
2017-12-11T23:58:17.116Z,1.40
